Weather at Kauhava Airfield

Public forecast

Using degrees Celsius for public forecast. Weather courtesy of forecast.io.

Closest aviation weather report (METAR) to Kauhava Airfield

Closest report is Seinäjoki Airport, 26.8 nm (49.6 km) SSW.

2024/07/20 05:50 (retrieved 26 minutes ago)

EFSI 200550Z AUTO 36003KT 310V060 9999 BKN007 OVC024 17/15 Q1011

Closest aviation forecast (TAF) to Kauhava Airfield

Closest forecast is Vaasa Airport, 35.3 nm (65.4 km) W.

2024/07/20 06:42 (retrieved 0 seconds ago)

TAF EFVA 200523Z 2006/2106 02005KT 9999 BKN020 TEMPO 2006/2007 BKN010 TEMPO 2008/2014 SHRA SCT020CB